Time;durP1;ratioP1;P1;durP2;ratioP2;P2;SDS_P1;SDS_P2;PMS_P1;PMS_P2;Temp;Humidity;BMP_temperature;BMP_pressure;BME280_temperature;BME280_humidity;BME280_pressure;Samples;Min_cycle;Max_cycle;Signal;HPM_P1;HPM_P2
2021/07/01 00:01:15;;;;;;;0.50;0.50;;;27.70;53.80;;;;;;5107243;28;20048;-69
2021/07/01 00:03:43;;;;;;;0.17;0.17;;;27.70;53.70;;;;;;5107163;28;20081;-69
2021/07/01 00:06:10;;;;;;;0.88;0.77;;;27.70;53.70;;;;;;5107212;28;20059;-69
2021/07/01 00:08:37;;;;;;;0.38;0.38;;;27.70;54.30;;;;;;5107051;28;20054;-69
2021/07/01 00:11:04;;;;;;;0.35;0.35;;;27.70;53.80;;;;;;5107011;28;20047;-69
2021/07/01 00:13:32;;;;;;;0.75;0.45;;;27.70;53.70;;;;;;5108584;28;20044;-69
2021/07/01 00:15:59;;;;;;;0.43;0.43;;;27.70;53.80;;;;;;5111055;28;20489;-69
2021/07/01 00:18:26;;;;;;;0.40;0.40;;;27.70;53.80;;;;;;5111226;28;20051;-69
2021/07/01 00:20:53;;;;;;;0.30;0.30;;;27.70;53.80;;;;;;5110876;28;20087;-69
2021/07/01 00:23:21;;;;;;;0.30;0.30;;;27.70;53.80;;;;;;5092865;28;20126;-69
2021/07/01 00:25:48;;;;;;;0.30;0.30;;;27.70;54.30;;;;;;5111463;28;20123;-69
2021/07/01 00:28:15;;;;;;;0.28;0.28;;;27.70;53.80;;;;;;5110910;28;20052;-69
2021/07/01 00:30:43;;;;;;;0.30;0.30;;;27.60;53.70;;;;;;5110527;28;20075;-69
2021/07/01 00:33:10;;;;;;;0.32;0.30;;;27.70;53.80;;;;;;5092763;28;20086;-69
2021/07/01 00:35:37;;;;;;;0.75;0.30;;;27.70;53.80;;;;;;5110544;28;20572;-70
2021/07/01 00:38:05;;;;;;;0.30;0.22;;;27.60;53.80;;;;;;5110923;28;20044;-69
2021/07/01 00:40:32;;;;;;;0.40;0.40;;;27.70;53.80;;;;;;5110354;28;20055;-69
2021/07/01 00:42:59;;;;;;;0.30;0.30;;;27.70;53.90;;;;;;5110891;28;20095;-69
2021/07/01 00:45:26;;;;;;;0.68;0.45;;;27.60;53.80;;;;;;5110467;28;20054;-69
2021/07/01 00:47:53;;;;;;;0.20;0.20;;;27.60;53.80;;;;;;5110630;28;20451;-68
2021/07/01 00:50:24;;;;;;;0.20;0.20;;;27.60;53.80;;;;;;5109957;28;20548;-69
2021/07/01 00:52:51;;;;;;;0.20;0.20;;;27.60;53.90;;;;;;5093197;28;20086;-69
2021/07/01 00:55:19;;;;;;;0.22;0.22;;;27.60;53.90;;;;;;5110121;28;20174;-69
2021/07/01 00:57:46;;;;;;;0.40;0.40;;;27.60;53.90;;;;;;5110502;28;20043;-69
2021/07/01 01:00:30;;;;;;;0.47;0.47;;;27.60;53.90;;;;;;5109877;28;20473;-69
2021/07/01 01:03:00;;;;;;;0.73;0.30;;;27.60;53.80;;;;;;5110503;28;20582;-69
2021/07/01 01:05:27;;;;;;;0.45;0.45;;;27.60;53.80;;;;;;5109906;28;20047;-69
2021/07/01 01:07:54;;;;;;;0.73;0.73;;;27.60;53.80;;;;;;5110308;28;20059;-69
2021/07/01 01:10:22;;;;;;;0.30;0.30;;;27.60;53.80;;;;;;5109790;28;20543;-69
2021/07/01 01:12:49;;;;;;;0.93;0.57;;;27.60;53.80;;;;;;5110491;28;20051;-69
2021/07/01 01:15:17;;;;;;;0.35;0.35;;;27.60;53.80;;;;;;5110272;28;20052;-69
2021/07/01 01:17:44;;;;;;;1.83;0.30;;;27.60;53.80;;;;;;5110018;28;20827;-69
2021/07/01 01:20:13;;;;;;;0.20;0.20;;;27.60;53.80;;;;;;5109840;28;20477;-69
2021/07/01 01:22:40;;;;;;;0.40;0.40;;;27.60;53.80;;;;;;5109904;28;20043;-69
2021/07/01 01:25:09;;;;;;;1.08;0.30;;;27.60;53.90;;;;;;5091124;28;20127;-69
2021/07/01 01:27:36;;;;;;;0.40;0.30;;;27.60;53.80;;;;;;5110284;28;20079;-69
2021/07/01 01:30:06;;;;;;;0.30;0.30;;;27.60;53.80;;;;;;5109637;28;20105;-69
2021/07/01 01:32:33;;;;;;;0.30;0.30;;;27.60;53.80;;;;;;5109712;28;20079;-69
2021/07/01 01:35:00;;;;;;;0.40;0.40;;;27.60;53.80;;;;;;5109581;28;20126;-69
2021/07/01 01:37:28;;;;;;;0.20;0.20;;;27.60;53.80;;;;;;5109815;28;20126;-69
2021/07/01 01:39:56;;;;;;;0.20;0.20;;;27.60;53.80;;;;;;5091619;28;20048;-69
2021/07/01 01:42:23;;;;;;;0.20;0.20;;;27.60;53.80;;;;;;5109004;28;20048;-69
2021/07/01 01:44:50;;;;;;;0.20;0.20;;;27.60;53.80;;;;;;5109563;28;20100;-69
2021/07/01 01:47:19;;;;;;;0.20;0.20;;;27.60;53.80;;;;;;5091412;28;20047;-69
2021/07/01 01:49:48;;;;;;;0.20;0.20;;;27.60;53.80;;;;;;5109804;28;20269;-69
2021/07/01 01:52:16;;;;;;;0.30;0.30;;;27.60;53.80;;;;;;5109054;28;20048;-69
2021/07/01 01:54:43;;;;;;;0.20;0.20;;;27.60;53.90;;;;;;5109276;28;20044;-69
2021/07/01 01:57:10;;;;;;;0.20;0.20;;;27.50;53.80;;;;;;5091270;28;20162;-69
2021/07/01 01:59:40;;;;;;;;;;;27.50;53.80;;;;;;5109675;28;20040;-69
2021/07/01 02:02:07;;;;;;;0.43;0.30;;;27.60;53.80;;;;;;5109137;28;19959;-69
2021/07/01 02:04:34;;;;;;;0.30;0.20;;;27.50;54.30;;;;;;5109055;28;20099;-69
2021/07/01 02:07:02;;;;;;;0.20;0.20;;;27.50;53.80;;;;;;5109133;28;20054;-69
2021/07/01 02:09:29;;;;;;;0.22;0.10;;;27.60;53.80;;;;;;5108665;28;20257;-69
2021/07/01 02:11:57;;;;;;;0.30;0.30;;;27.60;53.80;;;;;;5090817;28;20131;-69
2021/07/01 02:14:24;;;;;;;1.00;0.80;;;27.60;53.80;;;;;;5109077;28;20047;-69
2021/07/01 02:16:51;;;;;;;0.22;0.20;;;27.60;53.80;;;;;;5109045;28;20044;-69
2021/07/01 02:19:18;;;;;;;0.35;0.35;;;27.60;53.80;;;;;;5090968;28;20112;-69
2021/07/01 02:21:45;;;;;;;0.20;0.20;;;27.60;53.80;;;;;;5108386;28;20086;-69
2021/07/01 02:24:13;;;;;;;0.20;0.20;;;27.60;53.80;;;;;;5108609;28;20469;-68
2021/07/01 02:26:40;;;;;;;0.45;0.30;;;27.60;53.70;;;;;;5108490;28;20042;-69
2021/07/01 02:29:07;;;;;;;0.25;0.25;;;27.60;53.70;;;;;;5108757;28;20456;-69
2021/07/01 02:31:34;;;;;;;0.70;0.30;;;27.60;53.70;;;;;;5108779;28;20459;-69
2021/07/01 02:34:02;;;;;;;0.82;0.40;;;27.60;53.70;;;;;;5108524;28;20065;-69
2021/07/01 02:36:29;;;;;;;0.28;0.28;;;27.60;53.70;;;;;;5108052;28;20062;-69
2021/07/01 02:38:56;;;;;;;0.17;0.17;;;27.50;53.70;;;;;;5108792;28;20521;-69
2021/07/01 02:41:24;;;;;;;0.17;0.17;;;27.50;53.70;;;;;;5090179;28;20472;-69
2021/07/01 02:43:51;;;;;;;0.13;0.13;;;27.50;53.70;;;;;;5108610;28;20126;-69
2021/07/01 02:46:18;;;;;;;0.30;0.30;;;27.50;53.70;;;;;;5090165;28;20044;-69
2021/07/01 02:48:45;;;;;;;0.10;0.10;;;27.50;53.70;;;;;;5090048;28;20093;-69
2021/07/01 02:51:12;;;;;;;0.20;0.20;;;27.50;53.70;;;;;;5090180;28;20134;-69
2021/07/01 02:53:39;;;;;;;0.43;0.43;;;27.50;53.70;;;;;;5089997;28;20086;-69
2021/07/01 02:56:07;;;;;;;0.20;0.20;;;27.50;53.70;;;;;;5108209;28;20048;-69
2021/07/01 02:58:34;;;;;;;0.52;0.30;;;27.50;53.70;;;;;;5108141;28;20401;-69
2021/07/01 03:01:01;;;;;;;0.22;0.22;;;27.50;53.70;;;;;;5108023;28;20073;-69
2021/07/01 03:03:28;;;;;;;0.20;0.20;;;27.50;53.70;;;;;;5107861;28;20130;-69
2021/07/01 03:05:56;;;;;;;0.25;0.20;;;27.50;53.70;;;;;;5107992;28;20094;-69
2021/07/01 03:08:23;;;;;;;0.10;0.10;;;27.50;53.70;;;;;;5107898;28;20469;-68
2021/07/01 03:10:50;;;;;;;0.30;0.20;;;27.50;53.70;;;;;;5107737;28;20083;-69
2021/07/01 03:13:17;;;;;;;0.10;0.10;;;27.50;53.70;;;;;;5108147;28;20052;-69
2021/07/01 03:15:45;;;;;;;0.30;0.30;;;27.50;53.70;;;;;;5107883;28;20467;-69
2021/07/01 03:18:12;;;;;;;0.20;0.20;;;27.50;53.60;;;;;;5107932;28;20054;-69
2021/07/01 03:20:39;;;;;;;0.13;0.13;;;27.50;53.60;;;;;;5107950;28;20047;-69
2021/07/01 03:23:07;;;;;;;0.20;0.20;;;27.50;53.60;;;;;;5107740;28;20108;-69
2021/07/01 03:25:34;;;;;;;0.20;0.20;;;27.50;53.60;;;;;;5108163;28;20123;-69
2021/07/01 03:28:02;;;;;;;0.20;0.20;;;27.50;53.50;;;;;;5107365;28;20135;-69
2021/07/01 03:30:29;;;;;;;0.10;0.10;;;27.50;53.50;;;;;;5107718;28;20089;-69
2021/07/01 03:32:56;;;;;;;0.30;0.30;;;27.60;53.50;;;;;;5107916;28;20052;-69
2021/07/01 03:35:23;;;;;;;0.30;0.30;;;27.60;53.50;;;;;;5107638;28;20051;-68
2021/07/01 03:37:51;;;;;;;0.40;0.15;;;27.60;53.40;;;;;;5107833;28;20079;-69
2021/07/01 03:40:18;;;;;;;0.20;0.20;;;27.60;53.40;;;;;;5107568;28;20126;-69
2021/07/01 03:42:45;;;;;;;0.90;0.20;;;27.60;53.30;;;;;;5107949;28;20047;-69
2021/07/01 03:45:12;;;;;;;0.20;0.20;;;27.60;53.20;;;;;;5108002;28;20073;-69
2021/07/01 03:47:39;;;;;;;0.25;0.20;;;27.60;53.20;;;;;;5106809;28;20138;-69
2021/07/01 03:50:07;;;;;;;0.20;0.20;;;27.60;53.10;;;;;;5111679;28;20126;-69
2021/07/01 03:52:34;;;;;;;0.28;0.28;;;27.70;53.10;;;;;;5111578;28;20135;-69
2021/07/01 03:55:01;;;;;;;0.10;0.10;;;27.60;53.10;;;;;;5111486;28;20066;-69
2021/07/01 03:57:29;;;;;;;0.32;0.30;;;27.70;53.10;;;;;;5111704;28;20063;-69
2021/07/01 03:59:57;;;;;;;0.45;0.20;;;27.70;53.00;;;;;;5111376;28;20051;-69
2021/07/01 04:02:24;;;;;;;0.45;0.17;;;27.70;53.00;;;;;;5111368;28;20130;-68
2021/07/01 04:04:52;;;;;;;0.13;0.10;;;27.70;53.00;;;;;;5111278;28;20510;-69
2021/07/01 04:07:19;;;;;;;0.20;0.20;;;27.70;52.90;;;;;;5110126;28;21071;-69
2021/07/01 04:09:46;;;;;;;0.55;0.22;;;27.80;52.90;;;;;;5111142;28;20092;-69
2021/07/01 04:12:13;;;;;;;0.20;0.13;;;27.70;52.80;;;;;;5110892;28;20044;-69
2021/07/01 04:14:40;;;;;;;0.00;0.00;;;27.80;52.80;;;;;;5092550;28;20527;-69
2021/07/01 04:17:07;;;;;;;0.15;0.10;;;27.80;52.80;;;;;;5110703;28;20078;-69
2021/07/01 04:19:35;;;;;;;0.17;0.10;;;27.80;52.70;;;;;;5110808;28;20075;-69
2021/07/01 04:22:02;;;;;;;0.38;0.20;;;27.80;52.70;;;;;;5116490;27;20071;-69
2021/07/01 04:24:30;;;;;;;0.25;0.25;;;27.80;52.60;;;;;;5119789;27;20075;-69
2021/07/01 04:26:57;;;;;;;0.10;0.10;;;27.80;52.50;;;;;;5110078;28;20039;-69
2021/07/01 04:29:24;;;;;;;0.10;0.10;;;27.80;52.50;;;;;;5100697;28;20138;-69
2021/07/01 04:31:51;;;;;;;0.17;0.17;;;27.80;52.40;;;;;;5104849;28;20075;-69
2021/07/01 04:34:18;;;;;;;0.13;0.13;;;27.90;52.50;;;;;;5108106;28;20051;-69
2021/07/01 04:36:46;;;;;;;0.10;0.10;;;27.90;52.40;;;;;;5109220;28;20473;-69
2021/07/01 04:39:13;;;;;;;0.10;0.10;;;27.90;52.30;;;;;;5105362;28;20105;-69
2021/07/01 04:41:40;;;;;;;0.20;0.17;;;27.90;52.30;;;;;;5108164;28;20050;-69
2021/07/01 04:44:08;;;;;;;0.10;0.10;;;27.90;52.10;;;;;;5088572;28;20047;-69
2021/07/01 04:46:35;;;;;;;0.15;0.10;;;28.00;52.10;;;;;;5104218;28;20299;-69
2021/07/01 04:49:06;;;;;;;0.10;0.10;;;28.00;52.00;;;;;;5108597;28;20126;-69
2021/07/01 04:51:34;;;;;;;0.10;0.10;;;28.00;51.90;;;;;;5108207;28;20122;-69
2021/07/01 04:54:01;;;;;;;0.13;0.13;;;28.00;51.90;;;;;;5108536;28;20075;-70
2021/07/01 04:56:45;;;;;;;0.20;0.20;;;28.00;51.80;;;;;;5101923;28;20127;-69
2021/07/01 04:59:18;;;;;;;0.10;0.10;;;28.10;51.70;;;;;;5108005;28;20906;-69
2021/07/01 05:01:46;;;;;;;0.10;0.10;;;28.10;51.60;;;;;;5098871;28;20723;-69
2021/07/01 05:04:15;;;;;;;0.40;0.13;;;28.10;51.40;;;;;;5106473;28;20408;-69
2021/07/01 05:06:46;;;;;;;0.10;0.10;;;28.10;51.20;;;;;;5098370;28;20047;-69
2021/07/01 05:09:14;;;;;;;0.05;0.05;;;28.00;51.60;;;;;;5089295;28;20490;-69
2021/07/01 05:11:41;;;;;;;0.20;0.10;;;27.80;51.80;;;;;;5092550;28;20150;-69
2021/07/01 05:14:08;;;;;;;0.32;0.00;;;27.70;52.30;;;;;;5107403;28;20047;-69
2021/07/01 05:16:35;;;;;;;0.10;0.10;;;27.50;52.80;;;;;;5103764;28;20047;-69
2021/07/01 05:19:02;;;;;;;1.75;0.20;;;27.20;53.50;;;;;;5089073;28;20074;-69
2021/07/01 05:21:30;;;;;;;0.43;0.30;;;26.80;54.20;;;;;;5089180;28;20576;-73
2021/07/01 05:23:57;;;;;;;0.22;0.22;;;26.60;55.00;;;;;;5098036;27;20135;-71
2021/07/01 05:26:24;;;;;;;0.10;0.10;;;26.30;52.50;;;;;;5105338;27;20162;-71
2021/07/01 05:28:51;;;;;;;1.80;0.30;;;26.00;51.10;;;;;;5100272;28;20122;-68
2021/07/01 05:31:39;;;;;;;1.48;0.10;;;25.70;48.80;;;;;;5103766;28;20039;-69
2021/07/01 05:34:06;;;;;;;0.10;0.10;;;25.30;49.20;;;;;;5102193;28;20576;-70
2021/07/01 05:36:33;;;;;;;0.10;0.10;;;25.10;48.70;;;;;;5096056;28;20044;-70
2021/07/01 05:39:00;;;;;;;0.15;0.10;;;24.90;49.50;;;;;;5081195;28;20051;-70
2021/07/01 05:41:27;;;;;;;0.77;0.10;;;24.70;48.70;;;;;;5078599;28;20048;-70
2021/07/01 05:43:56;;;;;;;0.28;0.10;;;24.50;48.00;;;;;;5097489;27;20053;-70
2021/07/01 05:46:23;;;;;;;2.15;0.13;;;24.20;47.90;;;;;;5096907;28;20150;-70
2021/07/01 05:48:51;;;;;;;0.35;0.10;;;24.10;48.20;;;;;;5102144;28;20054;-70
2021/07/01 05:51:20;;;;;;;1.08;0.10;;;23.90;47.70;;;;;;5094963;28;20035;-69
2021/07/01 05:53:59;;;;;;;0.10;0.00;;;23.80;46.90;;;;;;5097083;27;20079;-70
2021/07/01 05:56:36;;;;;;;0.32;0.10;;;23.60;46.40;;;;;;5099752;28;20496;-70
2021/07/01 05:59:05;;;;;;;0.00;0.00;;;23.50;46.40;;;;;;5098232;27;20075;-70
2021/07/01 06:01:36;;;;;;;3.40;0.30;;;23.40;46.30;;;;;;5095042;27;20493;-67
2021/07/01 06:04:08;;;;;;;0.00;0.00;;;23.40;46.40;;;;;;5097362;27;20051;-67
2021/07/01 06:06:39;;;;;;;0.52;0.15;;;23.20;46.30;;;;;;5076732;27;20138;-67
2021/07/01 06:09:07;;;;;;;1.88;0.40;;;23.20;46.50;;;;;;5094946;28;20142;-68
2021/07/01 06:11:35;;;;;;;1.85;0.10;;;23.10;46.40;;;;;;5101880;28;20522;-67
2021/07/01 06:14:06;;;;;;;0.15;0.10;;;23.10;46.60;;;;;;5098964;27;20075;-70
2021/07/01 06:16:34;;;;;;;;;;;23.10;46.80;;;;;;5098373;27;20118;-69
2021/07/01 06:19:04;;;;;;;2.00;0.28;;;23.00;46.80;;;;;;5096391;28;20021;-68
2021/07/01 06:21:32;;;;;;;2.55;0.10;;;23.00;47.20;;;;;;5096539;27;20060;-71
2021/07/01 06:23:59;;;;;;;2.05;0.20;;;23.00;46.90;;;;;;5098860;27;20078;-68
2021/07/01 06:26:28;;;;;;;2.90;0.22;;;23.00;46.60;;;;;;5097348;27;20129;-69
2021/07/01 06:28:56;;;;;;;3.63;0.52;;;23.00;46.30;;;;;;5103751;27;20113;-68
2021/07/01 06:31:24;;;;;;;0.82;0.20;;;23.00;46.50;;;;;;5095726;27;20052;-70
2021/07/01 06:33:51;;;;;;;2.75;0.20;;;23.00;45.20;;;;;;5094929;28;20048;-69
2021/07/01 06:36:20;;;;;;;0.20;0.05;;;23.10;44.60;;;;;;5099964;28;20138;-69
2021/07/01 06:38:58;;;;;;;0.25;0.20;;;23.20;46.20;;;;;;5095546;28;20078;-69
2021/07/01 06:41:28;;;;;;;0.85;0.25;;;23.20;47.40;;;;;;5095782;27;20126;-69
2021/07/01 06:43:56;;;;;;;2.23;0.23;;;23.20;48.40;;;;;;5094177;27;20079;-69
2021/07/01 06:46:30;;;;;;;1.33;0.15;;;23.20;49.10;;;;;;5083502;28;20546;-72
2021/07/01 06:48:58;;;;;;;4.07;0.13;;;23.20;49.40;;;;;;5098674;28;20048;-70
2021/07/01 06:51:26;;;;;;;0.38;0.10;;;23.20;49.80;;;;;;5108713;27;20035;-66
2021/07/01 06:53:54;;;;;;;0.25;0.10;;;23.30;50.10;;;;;;5105801;27;20166;-65
2021/07/01 06:56:21;;;;;;;1.00;0.10;;;23.30;50.30;;;;;;5084138;27;20408;-66
2021/07/01 06:58:50;;;;;;;0.57;0.10;;;23.40;50.60;;;;;;5092074;27;20052;-66
2021/07/01 07:01:19;;;;;;;1.88;0.10;;;23.40;50.70;;;;;;5093956;27;20048;-67
2021/07/01 07:03:46;;;;;;;0.52;0.10;;;23.50;51.00;;;;;;5081067;28;20054;-67
2021/07/01 07:06:14;;;;;;;0.73;0.57;;;23.50;51.10;;;;;;5099453;27;20096;-68
2021/07/01 07:08:43;;;;;;;0.17;0.17;;;23.50;51.50;;;;;;5101276;27;20477;-67
2021/07/01 07:11:10;;;;;;;0.28;0.05;;;23.50;51.60;;;;;;5101654;27;20067;-66
2021/07/01 07:13:37;;;;;;;0.35;0.05;;;23.60;51.80;;;;;;5098582;27;20043;-64
2021/07/01 07:16:06;;;;;;;0.57;0.20;;;23.60;52.20;;;;;;5103771;27;20507;-69
2021/07/01 07:18:36;;;;;;;0.40;0.10;;;23.70;52.40;;;;;;5076230;28;20093;-69
2021/07/01 07:21:10;;;;;;;0.45;0.32;;;23.70;52.00;;;;;;5102098;27;20047;-68
2021/07/01 07:23:38;;;;;;;0.10;0.10;;;23.70;51.60;;;;;;5099695;27;20078;-69
2021/07/01 07:26:08;;;;;;;2.50;0.20;;;23.70;51.40;;;;;;5085691;27;20052;-69
2021/07/01 07:28:39;;;;;;;1.95;0.10;;;23.70;51.10;;;;;;5104275;28;20377;-69
2021/07/01 07:31:06;;;;;;;0.03;0.00;;;23.70;51.30;;;;;;5103937;28;20442;-70
2021/07/01 07:33:34;;;;;;;0.55;0.10;;;23.80;51.90;;;;;;5088948;28;20074;-71
2021/07/01 07:36:02;;;;;;;0.10;0.10;;;23.80;52.00;;;;;;5105691;28;20069;-70
2021/07/01 07:38:30;;;;;;;0.43;0.10;;;23.80;51.80;;;;;;5103459;28;20052;-70
2021/07/01 07:40:57;;;;;;;0.40;0.15;;;23.80;51.90;;;;;;5105280;28;20496;-70
2021/07/01 07:43:27;;;;;;;0.10;0.10;;;23.80;52.00;;;;;;5106240;28;20139;-70
2021/07/01 07:45:56;;;;;;;1.75;0.25;;;23.80;51.80;;;;;;5103353;28;20369;-70
2021/07/01 07:48:24;;;;;;;2.08;0.43;;;23.80;51.80;;;;;;5102176;28;20082;-69
2021/07/01 07:50:53;;;;;;;0.32;0.10;;;23.80;51.70;;;;;;5108338;28;20058;-69
2021/07/01 07:53:24;;;;;;;0.60;0.28;;;23.80;51.50;;;;;;5105343;28;20043;-69
2021/07/01 07:56:01;;;;;;;0.28;0.10;;;23.80;51.20;;;;;;5099946;28;20150;-69
2021/07/01 07:58:31;;;;;;;0.22;0.08;;;23.80;51.40;;;;;;5098167;28;20394;-69
2021/07/01 08:01:03;;;;;;;0.00;0.00;;;23.80;51.20;;;;;;5103338;28;20046;-71
2021/07/01 08:03:32;;;;;;;0.90;0.10;;;23.80;51.70;;;;;;5106023;28;20055;-70
2021/07/01 08:06:02;;;;;;;1.88;0.15;;;23.80;52.10;;;;;;5099025;28;20130;-70
2021/07/01 08:08:30;;;;;;;0.10;0.03;;;23.80;52.10;;;;;;5100118;28;20059;-69
2021/07/01 08:10:59;;;;;;;0.38;0.10;;;23.70;52.10;;;;;;5104615;28;20048;-70
2021/07/01 08:13:29;;;;;;;2.63;0.10;;;23.80;52.20;;;;;;5102841;28;20035;-69
2021/07/01 08:15:58;;;;;;;0.28;0.10;;;23.80;51.90;;;;;;5100926;28;20055;-70
2021/07/01 08:18:39;;;;;;;0.43;0.28;;;23.80;51.70;;;;;;5105696;28;20135;-69
2021/07/01 08:21:08;;;;;;;0.13;0.10;;;23.80;52.10;;;;;;5108706;28;20509;-67
2021/07/01 08:23:37;;;;;;;0.10;0.10;;;23.80;52.00;;;;;;5098841;28;20481;-69
2021/07/01 08:26:04;;;;;;;0.20;0.20;;;23.80;52.30;;;;;;5104011;28;20040;-68
2021/07/01 08:28:33;;;;;;;0.17;0.17;;;23.80;52.20;;;;;;5103620;28;20044;-70
2021/07/01 08:31:14;;;;;;;0.28;0.10;;;23.80;52.30;;;;;;5108855;28;20476;-68
2021/07/01 08:33:43;;;;;;;0.50;0.10;;;23.90;52.70;;;;;;5105480;28;20058;-69
2021/07/01 08:36:25;;;;;;;2.17;0.28;;;23.90;52.80;;;;;;5108080;27;20142;-68
2021/07/01 08:38:54;;;;;;;2.15;0.10;;;23.90;52.70;;;;;;5111730;27;20046;-68
2021/07/01 08:41:26;;;;;;;0.10;0.10;;;23.90;52.50;;;;;;5089777;28;20052;-67
2021/07/01 08:43:59;;;;;;;0.20;0.10;;;23.90;52.70;;;;;;5112597;27;20109;-69
2021/07/01 08:46:50;;;;;;;1.35;0.30;;;23.90;52.70;;;;;;5106872;27;20055;-69
2021/07/01 08:49:46;;;;;;;3.17;0.10;;;24.00;52.60;;;;;;5103841;27;20515;-68
2021/07/01 08:52:15;;;;;;;1.05;0.10;;;24.00;53.10;;;;;;5108028;27;20040;-69
2021/07/01 08:54:43;;;;;;;1.30;0.10;;;24.00;52.40;;;;;;5106560;27;20097;-70
2021/07/01 08:57:13;;;;;;;1.60;0.25;;;24.00;52.30;;;;;;5105613;27;20042;-68
2021/07/01 08:59:52;;;;;;;2.30;0.10;;;24.00;52.60;;;;;;5091256;27;20051;-68
2021/07/01 09:02:35;;;;;;;3.30;0.40;;;24.00;52.70;;;;;;5101528;27;20496;-68
2021/07/01 09:05:07;;;;;;;0.63;0.30;;;24.00;52.70;;;;;;5109200;27;20349;-68
2021/07/01 09:07:38;;;;;;;0.75;0.20;;;24.00;52.90;;;;;;5105450;27;20481;-69
2021/07/01 09:10:10;;;;;;;1.45;0.15;;;24.00;53.20;;;;;;5106083;27;20329;-69
2021/07/01 09:12:42;;;;;;;1.38;0.30;;;24.00;53.70;;;;;;5106975;27;20055;-69
2021/07/01 09:15:11;;;;;;;0.32;0.15;;;24.00;53.90;;;;;;5090189;27;20099;-69
2021/07/01 09:17:47;;;;;;;0.93;0.20;;;24.00;53.80;;;;;;5107386;27;20070;-69
2021/07/01 09:20:20;;;;;;;0.75;0.22;;;24.00;53.80;;;;;;5106061;27;20047;-69
2021/07/01 09:22:49;;;;;;;0.45;0.20;;;24.00;53.90;;;;;;5108252;27;20079;-71
2021/07/01 09:25:18;;;;;;;2.22;0.38;;;24.00;54.40;;;;;;5107814;27;20511;-69
2021/07/01 09:27:48;;;;;;;0.52;0.10;;;24.00;54.70;;;;;;5104507;27;20051;-69
2021/07/01 09:30:18;;;;;;;2.20;0.10;;;24.00;54.50;;;;;;5104833;27;20112;-69
2021/07/01 09:32:46;;;;;;;1.58;0.63;;;24.00;54.70;;;;;;5105579;27;20116;-69
2021/07/01 09:35:13;;;;;;;0.70;0.20;;;24.00;54.90;;;;;;5103588;28;20066;-69
2021/07/01 09:37:43;;;;;;;2.03;0.10;;;24.00;54.40;;;;;;5098933;28;20445;-70
2021/07/01 09:40:13;;;;;;;0.40;0.30;;;24.10;54.20;;;;;;5106968;27;20081;-69
2021/07/01 09:42:41;;;;;;;3.00;0.65;;;24.10;54.50;;;;;;5104895;27;20039;-69
2021/07/01 09:45:12;;;;;;;2.50;0.05;;;24.10;54.40;;;;;;5082394;28;20443;-71
2021/07/01 09:47:46;;;;;;;1.15;0.20;;;24.10;54.40;;;;;;5104150;27;20082;-71
2021/07/01 09:50:13;;;;;;;3.05;0.40;;;24.10;54.40;;;;;;5106181;28;20112;-70
2021/07/01 09:52:43;;;;;;;0.32;0.10;;;24.20;54.40;;;;;;5105650;28;20381;-71
2021/07/01 09:55:12;;;;;;;1.08;0.45;;;24.20;54.40;;;;;;5102872;28;20051;-71
2021/07/01 09:57:44;;;;;;;0.43;0.05;;;24.20;54.50;;;;;;5101746;27;20088;-70
2021/07/01 10:00:13;;;;;;;0.10;0.10;;;24.20;54.40;;;;;;5103321;28;20291;-70
2021/07/01 10:02:41;;;;;;;1.13;0.10;;;24.20;54.40;;;;;;5087650;27;20039;-71
2021/07/01 10:05:25;;;;;;;0.25;0.10;;;24.30;54.30;;;;;;5106182;28;20048;-70
2021/07/01 10:07:52;;;;;;;0.80;0.10;;;24.30;54.40;;;;;;5086492;28;20044;-70
2021/07/01 10:10:21;;;;;;;2.33;0.40;;;24.20;54.50;;;;;;5102636;28;20054;-70
2021/07/01 10:12:53;;;;;;;0.57;0.10;;;24.20;54.50;;;;;;5097796;28;20458;-69
2021/07/01 10:15:30;;;;;;;1.85;0.17;;;24.20;54.40;;;;;;5105469;27;20510;-69
2021/07/01 10:18:11;;;;;;;0.75;0.47;;;24.20;54.20;;;;;;5097606;27;20040;-69
2021/07/01 10:20:54;;;;;;;1.75;0.10;;;24.20;54.20;;;;;;5103057;28;20480;-69
2021/07/01 10:23:30;;;;;;;2.42;0.13;;;24.20;54.30;;;;;;5103634;28;20043;-69
2021/07/01 10:26:10;;;;;;;1.33;0.35;;;24.20;54.00;;;;;;5104093;27;20143;-69
2021/07/01 10:28:37;;;;;;;0.45;0.00;;;24.20;53.90;;;;;;5104058;28;20131;-69
2021/07/01 10:31:13;;;;;;;0.10;0.10;;;24.20;53.80;;;;;;5101934;28;20043;-69
2021/07/01 10:33:43;;;;;;;0.03;0.00;;;24.20;53.70;;;;;;5102798;28;20118;-69
2021/07/01 10:36:21;;;;;;;1.65;0.35;;;24.20;53.70;;;;;;5097616;28;20143;-70
2021/07/01 10:38:51;;;;;;;0.22;0.10;;;24.20;53.70;;;;;;5101333;28;20451;-69
2021/07/01 10:41:33;;;;;;;0.93;0.17;;;24.20;53.60;;;;;;5102781;28;20043;-71
2021/07/01 10:44:02;;;;;;;0.10;0.10;;;24.20;53.50;;;;;;5103712;27;20484;-70
2021/07/01 10:46:47;;;;;;;3.65;0.10;;;24.20;54.30;;;;;;5098661;28;20040;-70
2021/07/01 10:49:17;;;;;;;2.65;0.13;;;24.20;53.50;;;;;;5100031;28;20158;-71
2021/07/01 10:51:58;;;;;;;2.25;0.30;;;24.20;53.70;;;;;;5100672;28;20062;-71
2021/07/01 10:54:26;;;;;;;1.00;0.25;;;24.20;53.70;;;;;;5097974;28;20456;-69
2021/07/01 10:57:08;;;;;;;0.10;0.10;;;24.20;53.80;;;;;;5098345;28;20322;-68
2021/07/01 10:59:54;;;;;;;0.28;0.10;;;24.20;53.80;;;;;;5102105;28;20130;-69
2021/07/01 11:02:27;;;;;;;0.73;0.00;;;24.30;54.40;;;;;;5099396;27;20134;-65
2021/07/01 11:04:59;;;;;;;0.70;0.00;;;24.30;54.30;;;;;;5101311;27;20126;-70
2021/07/01 11:07:28;;;;;;;0.47;0.10;;;24.30;54.60;;;;;;5099491;28;20052;-69
2021/07/01 11:10:11;;;;;;;1.08;0.13;;;24.30;54.90;;;;;;5102217;28;20051;-67
2021/07/01 11:12:46;;;;;;;0.90;0.05;;;24.30;55.00;;;;;;5108555;27;20071;-68
2021/07/01 11:15:23;;;;;;;0.22;0.10;;;24.30;54.80;;;;;;5069463;28;20063;-67
2021/07/01 11:17:50;;;;;;;1.38;0.00;;;24.30;55.30;;;;;;5101880;28;20055;-69
2021/07/01 11:20:19;;;;;;;0.20;0.00;;;24.30;55.50;;;;;;5104841;27;20142;-67
2021/07/01 11:22:55;;;;;;;0.00;0.00;;;24.30;55.50;;;;;;5104220;28;20126;-65
2021/07/01 11:25:28;;;;;;;0.63;0.10;;;24.30;55.80;;;;;;5098689;28;20126;-68
2021/07/01 11:28:29;;;;;;;0.35;0.10;;;24.30;55.80;;;;;;5104393;28;20540;-64
2021/07/01 11:31:02;;;;;;;0.15;0.00;;;24.30;55.80;;;;;;5098298;28;20051;-64
2021/07/01 11:33:30;;;;;;;0.28;0.28;;;24.30;55.80;;;;;;5102059;28;20044;-64
2021/07/01 11:36:13;;;;;;;0.10;0.10;;;24.30;56.10;;;;;;5096614;28;20139;-65
2021/07/01 11:38:42;;;;;;;1.08;0.08;;;24.30;56.70;;;;;;5098408;28;20394;-66
2021/07/01 11:41:09;;;;;;;1.90;0.10;;;24.30;56.50;;;;;;5103855;28;20051;-65
2021/07/01 11:43:39;;;;;;;0.30;0.08;;;24.30;56.50;;;;;;5099342;28;20171;-65
2021/07/01 11:46:07;;;;;;;0.15;0.13;;;24.30;56.60;;;;;;5101537;28;20068;-66
2021/07/01 11:48:36;;;;;;;0.20;0.10;;;24.30;56.80;;;;;;5100176;28;20039;-66
2021/07/01 11:51:07;;;;;;;0.73;0.10;;;24.30;57.10;;;;;;5101330;28;20058;-64
2021/07/01 11:53:36;;;;;;;0.00;0.00;;;24.30;57.10;;;;;;5099939;28;20044;-65
2021/07/01 11:56:03;;;;;;;0.28;0.00;;;24.30;57.10;;;;;;5102234;28;20097;-67
2021/07/01 11:58:31;;;;;;;0.30;0.10;;;24.30;56.80;;;;;;5096951;28;20067;-67
2021/07/01 12:01:00;;;;;;;0.15;0.15;;;24.30;56.60;;;;;;5101865;28;20040;-67
2021/07/01 12:03:29;;;;;;;0.32;0.10;;;24.30;56.30;;;;;;5096479;28;20051;-67
2021/07/01 12:05:57;;;;;;;0.35;0.10;;;24.30;56.00;;;;;;5096364;28;20048;-66
2021/07/01 12:08:27;;;;;;;2.33;0.30;;;24.40;55.90;;;;;;5095853;28;20480;-65
2021/07/01 12:11:02;;;;;;;0.00;0.00;;;24.30;55.80;;;;;;5100370;28;20052;-66
2021/07/01 12:13:40;;;;;;;1.27;0.52;;;24.40;56.40;;;;;;5100697;27;20050;-66
2021/07/01 12:16:16;;;;;;;0.28;0.00;;;24.40;56.20;;;;;;5103539;28;20045;-65
2021/07/01 12:18:49;;;;;;;0.55;0.10;;;24.40;56.40;;;;;;5104999;27;20497;-65
2021/07/01 12:21:23;;;;;;;0.10;0.00;;;24.50;56.40;;;;;;5103108;27;20456;-65
2021/07/01 12:23:57;;;;;;;1.17;0.10;;;24.50;56.40;;;;;;5101337;28;20048;-67
2021/07/01 12:26:44;;;;;;;0.90;0.10;;;24.50;56.50;;;;;;5102217;28;20069;-67
2021/07/01 12:29:20;;;;;;;1.05;0.13;;;24.50;56.40;;;;;;5101739;27;20043;-68
2021/07/01 12:31:47;;;;;;;0.25;0.10;;;24.60;56.20;;;;;;5103582;28;20083;-67
2021/07/01 12:34:19;;;;;;;0.85;0.10;;;24.60;56.20;;;;;;5101474;27;20075;-64
2021/07/01 12:36:58;;;;;;;0.68;0.20;;;24.60;56.40;;;;;;5101794;28;20044;-64
2021/07/01 12:39:27;;;;;;;1.85;0.20;;;24.70;56.00;;;;;;5096826;27;20142;-63
2021/07/01 12:42:15;;;;;;;3.13;0.32;;;24.70;55.90;;;;;;5104756;27;20131;-64
2021/07/01 12:44:44;;;;;;;0.57;0.10;;;24.70;56.00;;;;;;5076954;28;20086;-63
2021/07/01 12:47:27;;;;;;;0.63;0.10;;;24.80;56.10;;;;;;5109992;27;20101;-67
2021/07/01 12:49:59;;;;;;;0.65;0.00;;;24.80;56.10;;;;;;5101630;27;20094;-67
2021/07/01 12:52:39;;;;;;;0.10;0.03;;;24.80;56.10;;;;;;5083056;28;20193;-67
2021/07/01 12:55:09;;;;;;;1.75;0.05;;;24.80;55.90;;;;;;5109422;27;20487;-64
2021/07/01 12:57:36;;;;;;;0.75;0.30;;;24.90;55.80;;;;;;5108410;27;20077;-65
2021/07/01 13:00:06;;;;;;;0.00;0.00;;;24.90;55.70;;;;;;5105490;27;20059;-68
2021/07/01 13:02:34;;;;;;;1.63;0.15;;;24.90;55.70;;;;;;5104305;27;20079;-64